createdAt,value
2023-03-13T00:03:03.011Z,97637.63
2023-03-13T00:08:07.852Z,97626.75
2023-03-13T00:13:11.371Z,97660.91
2023-03-13T00:18:14.749Z,97664.16
2023-03-13T00:23:19.633Z,97668.63
2023-03-13T00:28:23.095Z,97673.63
2023-03-13T00:33:26.567Z,97679.56
2023-03-13T00:38:32.337Z,97666.84
2023-03-13T00:43:36.779Z,97683.63
2023-03-13T00:48:40.188Z,97694.31
2023-03-13T00:53:45.469Z,97707.00
2023-03-13T00:58:50.508Z,97715.19
2023-03-13T01:03:56.200Z,97730.56
2023-03-13T01:09:01.865Z,97736.03
2023-03-13T01:14:07.989Z,97747.88
2023-03-13T01:19:13.687Z,97753.34
2023-03-13T01:24:20.344Z,97770.47
2023-03-13T01:29:23.893Z,97786.06
2023-03-13T01:34:27.474Z,97780.78
2023-03-13T01:39:32.533Z,97801.78
2023-03-13T01:44:51.770Z,97814.63
2023-03-13T01:49:55.336Z,97819.47
2023-03-13T01:55:05.125Z,97826.47
2023-03-13T02:00:12.579Z,97838.97
2023-03-13T02:05:18.328Z,97834.69
2023-03-13T02:10:24.332Z,97853.72
2023-03-13T02:15:29.180Z,97851.63
2023-03-13T02:20:32.999Z,97858.06
2023-03-13T02:25:44.394Z,97885.72
2023-03-13T02:30:49.759Z,97873.59
2023-03-13T02:35:55.131Z,97901.28
2023-03-13T02:41:02.179Z,97907.09
2023-03-13T02:46:08.424Z,97916.81
2023-03-13T02:51:18.779Z,97928.47
2023-03-13T02:56:26.737Z,97936.44
2023-03-13T03:01:30.460Z,97926.66
2023-03-13T03:06:34.084Z,97945.63
2023-03-13T03:11:39.590Z,97961.47
2023-03-13T03:16:43.333Z,97961.78
2023-03-13T03:21:47.012Z,97976.09
2023-03-13T03:26:51.890Z,97987.88
2023-03-13T03:31:55.533Z,98000.13
2023-03-13T03:36:59.057Z,98000.91
2023-03-13T03:42:04.851Z,98000.97
2023-03-13T03:47:08.492Z,98012.59
2023-03-13T03:52:12.086Z,98028.31
2023-03-13T03:57:16.852Z,98021.94
2023-03-13T04:02:20.410Z,98032.81
2023-03-13T04:07:23.992Z,98045.59
2023-03-13T04:12:28.845Z,98045.66
2023-03-13T04:17:32.597Z,98056.25
2023-03-13T04:22:35.984Z,98066.56
2023-03-13T04:27:40.920Z,98073.03
2023-03-13T04:32:44.650Z,98072.41
2023-03-13T04:37:48.053Z,98081.72
2023-03-13T04:42:53.029Z,98091.13
2023-03-13T04:47:56.538Z,98100.19
2023-03-13T04:52:59.998Z,98110.97
2023-03-13T04:58:04.795Z,98113.34
2023-03-13T05:03:08.248Z,98116.69
2023-03-13T05:08:11.993Z,98131.69
2023-03-13T05:13:16.837Z,98126.78
2023-03-13T05:18:20.513Z,98117.72
2023-03-13T05:23:24.139Z,98134.72
2023-03-13T05:28:29.193Z,98150.31
2023-03-13T05:33:32.901Z,98161.25
2023-03-13T05:38:36.465Z,98166.81
2023-03-13T05:43:41.213Z,98165.91
2023-03-13T05:48:45.749Z,98162.41
2023-03-13T05:53:49.288Z,98182.34
2023-03-13T05:58:54.268Z,98186.50
2023-03-13T06:03:57.768Z,98194.06
2023-03-13T06:09:01.235Z,98203.13
2023-03-13T06:14:06.220Z,98207.78
2023-03-13T06:19:09.650Z,98205.56
2023-03-13T06:24:13.190Z,98211.78
2023-03-13T06:29:18.215Z,98217.28
2023-03-13T06:34:21.776Z,98223.41
2023-03-13T06:39:25.128Z,98230.16
2023-03-13T06:44:29.995Z,98235.50
2023-03-13T06:49:33.802Z,98247.44
2023-03-13T06:54:37.389Z,98256.53
2023-03-13T06:59:42.317Z,98260.38
2023-03-13T07:04:46.692Z,98256.09
2023-03-13T07:09:50.014Z,98273.97
2023-03-13T07:14:56.116Z,98279.59
2023-03-13T07:19:59.552Z,98294.47
2023-03-13T07:25:03.112Z,98291.31
2023-03-13T07:30:09.238Z,98297.13
2023-03-13T07:35:12.961Z,98297.16
2023-03-13T07:40:16.556Z,98302.69
2023-03-13T07:45:21.506Z,98321.94
2023-03-13T07:50:25.061Z,98316.75
2023-03-13T07:55:28.496Z,98323.59
2023-03-13T08:00:33.451Z,98319.31
2023-03-13T08:05:37.013Z,98325.91
2023-03-13T08:10:41.459Z,98321.38
2023-03-13T08:15:46.400Z,98344.03
2023-03-13T08:20:50.309Z,98334.31
2023-03-13T08:25:54.062Z,98345.34
2023-03-13T08:30:59.089Z,98345.59
2023-03-13T08:36:10.706Z,98356.41
2023-03-13T08:41:15.693Z,98367.28
2023-03-13T08:46:21.119Z,98384.34
2023-03-13T08:51:27.028Z,98391.81
2023-03-13T08:56:31.860Z,98403.72
2023-03-13T09:01:38.280Z,98408.69
2023-03-13T09:06:42.064Z,98402.91
2023-03-13T09:11:45.459Z,98415.94
2023-03-13T09:16:50.384Z,98435.28
2023-03-13T09:21:53.607Z,98442.91
2023-03-13T09:27:01.420Z,98456.13
2023-03-13T09:32:07.388Z,98445.13
2023-03-13T09:37:10.917Z,98448.25
2023-03-13T09:42:18.074Z,98466.88
2023-03-13T09:47:27.256Z,98475.25
2023-03-13T09:52:36.712Z,98464.88
2023-03-13T09:57:47.841Z,98465.06
2023-03-13T10:02:58.312Z,98495.66
2023-03-13T10:08:12.432Z,98499.50
2023-03-13T10:13:21.538Z,98502.50
2023-03-13T10:18:27.304Z,98508.28
2023-03-13T10:23:40.918Z,98521.22
2023-03-13T10:28:44.370Z,98529.34
2023-03-13T10:33:49.164Z,98523.38
2023-03-13T10:38:54.065Z,98547.03
2023-03-13T10:44:01.910Z,98545.50
2023-03-13T10:49:16.733Z,98557.09
2023-03-13T10:54:25.171Z,98574.34
2023-03-13T10:59:29.323Z,98573.94
2023-03-13T11:04:37.789Z,98567.44
2023-03-13T11:09:41.430Z,98578.28
2023-03-13T11:14:46.517Z,98592.69
2023-03-13T11:19:59.890Z,98609.75
2023-03-13T11:25:24.001Z,98611.91
2023-03-13T11:30:43.658Z,98608.97
2023-03-13T11:35:51.942Z,98617.59
2023-03-13T11:41:05.720Z,98620.88
2023-03-13T11:46:24.335Z,98620.94
2023-03-13T11:51:38.081Z,98632.81
2023-03-13T11:57:07.405Z,98639.53
2023-03-13T12:02:22.549Z,98660.69
2023-03-13T12:07:29.817Z,98647.94
2023-03-13T12:12:41.190Z,98645.84
2023-03-13T12:17:52.249Z,98673.34
2023-03-13T12:23:08.356Z,98670.41
2023-03-13T12:28:24.982Z,98672.72
2023-03-13T12:33:32.520Z,98657.94
2023-03-13T12:38:41.383Z,98675.53
2023-03-13T12:44:00.616Z,98685.97
2023-03-13T12:49:33.948Z,98681.50
2023-03-13T12:54:54.204Z,98692.97
2023-03-13T13:00:05.768Z,98696.94
2023-03-13T13:05:21.018Z,98695.97
2023-03-13T13:10:28.070Z,98711.97
2023-03-13T13:15:32.132Z,98703.16
2023-03-13T13:20:46.952Z,98704.69
2023-03-13T13:25:53.483Z,98695.91
2023-03-13T13:30:58.114Z,98707.19
2023-03-13T13:36:42.273Z,98697.66
2023-03-13T13:41:47.233Z,98709.88
2023-03-13T13:46:51.359Z,98701.72
2023-03-13T13:52:20.928Z,98702.72
2023-03-13T13:57:28.318Z,98711.53
2023-03-13T14:02:35.470Z,98727.25
2023-03-13T14:07:52.742Z,98715.91
2023-03-13T14:12:58.935Z,98714.09
2023-03-13T14:18:13.489Z,98717.19
2023-03-13T14:23:29.633Z,98705.81
2023-03-13T14:28:34.598Z,98725.19
2023-03-13T14:33:38.176Z,98728.69
2023-03-13T14:38:44.289Z,98731.25
2023-03-13T14:43:49.169Z,98738.56
2023-03-13T14:48:55.845Z,98736.50
2023-03-13T14:54:01.497Z,98728.81
2023-03-13T14:59:16.923Z,98712.88
2023-03-13T15:04:49.970Z,98742.78
2023-03-13T15:09:53.944Z,98743.69
2023-03-13T15:14:59.886Z,98758.72
2023-03-13T15:20:03.483Z,98766.84
2023-03-13T15:25:16.009Z,98765.63
2023-03-13T15:30:23.764Z,98764.06
2023-03-13T15:35:30.715Z,98766.97
2023-03-13T15:40:34.548Z,98773.81
2023-03-13T15:45:41.539Z,98783.88
2023-03-13T15:50:45.579Z,98798.00
2023-03-13T15:55:50.396Z,98803.41
2023-03-13T16:00:55.167Z,98805.91
2023-03-13T16:06:01.266Z,98797.19
2023-03-13T16:11:05.274Z,98814.16
2023-03-13T16:16:22.575Z,98794.56
2023-03-13T16:21:28.415Z,98810.69
2023-03-13T16:26:33.026Z,98842.34
2023-03-13T16:31:37.956Z,98828.16
2023-03-13T16:36:41.735Z,98846.94
2023-03-13T16:41:45.241Z,98848.50
2023-03-13T16:47:04.673Z,98857.81
2023-03-13T16:52:15.075Z,98862.59
2023-03-13T16:57:21.219Z,98870.09
2023-03-13T17:02:26.159Z,98856.94
2023-03-13T17:07:29.963Z,98880.75
2023-03-13T17:12:33.495Z,98880.31
2023-03-13T17:17:39.310Z,98861.53
2023-03-13T17:22:43.084Z,98888.31
2023-03-13T17:27:47.727Z,98890.72
2023-03-13T17:32:53.044Z,98888.06
2023-03-13T17:37:56.673Z,98889.00
2023-03-13T17:43:00.308Z,98891.69
2023-03-13T17:48:05.838Z,98894.53
2023-03-13T17:53:09.658Z,98892.44
2023-03-13T17:58:13.275Z,98900.34
2023-03-13T18:03:18.054Z,98906.16
2023-03-13T18:08:21.246Z,98908.03
2023-03-13T18:13:24.715Z,98911.66
2023-03-13T18:18:29.563Z,98913.69
2023-03-13T18:23:33.130Z,98915.16
2023-03-13T18:28:36.611Z,98910.81
2023-03-13T18:33:41.916Z,98908.19
2023-03-13T18:38:45.827Z,98911.53
2023-03-13T18:43:49.386Z,98914.91
2023-03-13T18:48:54.458Z,98926.91
2023-03-13T18:53:58.199Z,98936.84
2023-03-13T18:59:01.759Z,98940.16
2023-03-13T19:04:07.160Z,98929.44
2023-03-13T19:09:40.978Z,98939.38
2023-03-13T19:14:39.278Z,98942.75
2023-03-13T19:19:44.078Z,98955.88
2023-03-13T19:24:47.500Z,98956.28
2023-03-13T19:29:50.920Z,98954.06
2023-03-13T19:34:55.727Z,98955.50
2023-03-13T19:39:59.124Z,98956.13
2023-03-13T19:45:02.663Z,98960.91
2023-03-13T19:50:14.284Z,98969.41
2023-03-13T19:55:18.233Z,98964.06
2023-03-13T20:00:23.823Z,98976.59
2023-03-13T20:05:28.828Z,98930.13
2023-03-13T20:10:32.413Z,98969.06
2023-03-13T20:15:36.021Z,98970.44
2023-03-13T20:20:40.893Z,98953.47
2023-03-13T20:25:44.464Z,98958.78
2023-03-13T20:30:48.876Z,98951.25
2023-03-13T20:35:58.115Z,98945.88
2023-03-13T20:41:01.996Z,98938.91
2023-03-13T20:46:07.383Z,98939.88
2023-03-13T20:51:13.105Z,98929.59
2023-03-13T20:56:16.500Z,98934.50
2023-03-13T21:01:20.912Z,98931.97
2023-03-13T21:06:27.653Z,98931.47
2023-03-13T21:11:31.148Z,98927.69
2023-03-13T21:16:34.696Z,98926.25
2023-03-13T21:21:39.626Z,98923.78
2023-03-13T21:26:43.100Z,98924.34
2023-03-13T21:31:46.775Z,98932.44
2023-03-13T21:36:51.719Z,98935.38
2023-03-13T21:41:55.377Z,98933.47
2023-03-13T21:46:58.963Z,98920.72
2023-03-13T21:52:04.145Z,98913.81
2023-03-13T21:57:08.120Z,98912.16
2023-03-13T22:02:13.039Z,98912.25
2023-03-13T22:07:18.149Z,98879.63
2023-03-13T22:12:23.829Z,98899.31
2023-03-13T22:17:27.357Z,98879.78
2023-03-13T22:22:32.411Z,98883.34
2023-03-13T22:27:36.288Z,98874.56
2023-03-13T22:32:39.997Z,98838.94
2023-03-13T22:37:45.668Z,98856.97
2023-03-13T22:42:49.296Z,98847.31
2023-03-13T22:47:52.886Z,98842.47
2023-03-13T22:52:57.719Z,98837.47
2023-03-13T22:58:01.242Z,98833.28
2023-03-13T23:03:04.626Z,98824.00
2023-03-13T23:08:09.632Z,98806.72
2023-03-13T23:13:13.901Z,98805.59
2023-03-13T23:18:17.350Z,98791.66
2023-03-13T23:23:22.466Z,98782.84
2023-03-13T23:28:25.830Z,98779.03
2023-03-13T23:33:30.630Z,98772.50
2023-03-13T23:38:35.649Z,98765.81
2023-03-13T23:43:39.251Z,98753.25
2023-03-13T23:48:42.620Z,98735.97
2023-03-13T23:53:47.562Z,98732.41
2023-03-13T23:58:51.114Z,98719.38
